• Join FlightAware (Why Join?)
  • Login
  • US Flag 
06:48AM EST


 

Airport Tracker/Info


-or-


 

Live Flight TrackerFlight Track Log ✈ LBQ968 ✈ 31-May-2014 ✈ KSYR - KROC

Flight Track Log - Related Links

Times and Time Zones

All times are in EDT time to prevent confusion due to time zone crossing. See the LBQ968 flight status page for this flight to view local times or setup timezone preferences in your user account.

Time Position Orientation Groundspeed Altitude Reporting Facility
EDT Latitude Longitude Course Direction KTS MPH feet Rate Location/Type
06:10PM 43.1042 -76.1528 258° West 139 160 1,700  Level Boston Center
06:11PM 43.1044 -76.2142 270° West 155 178 2,800 900 Climbing Boston Center
06:13PM 43.1061 -76.2819 272° West 153 176 3,700 600 Climbing Boston Center
06:13PM 43.1086 -76.3408 273° West 175 201 4,100 360 Climbing Boston Center
06:14PM 43.1081 -76.3483 264° West 164 189 4,100  Level Boston Center
06:14PM 43.1103 -76.4175 273° West 208 239 4,100  Level Boston Center
06:15PM 43.1111 -76.4250 279° West 186 214 4,100  Level Boston Center
06:16PM 43.1136 -76.5031 273° West 202 232 4,100  Level Boston Center
06:17PM 43.1156 -76.5822 272° West 203 234 4,100  Level Boston Center
06:18PM 43.1167 -76.6644 271° West 205 236 4,100  Level Boston Center
06:19PM 43.1158 -76.7439 269° West 206 237 4,100  Level Boston Center
06:20PM 43.1172 -76.8225 271° West 207 238 4,100  Level Boston Center
06:21PM 43.1164 -76.9169 269° West 210 242 4,100  Level Cleveland Center
06:21PM 43.1167 -76.9325 271° West 207 238 4,100  Level Cleveland Center
06:22PM 43.1181 -76.9983 272° West 210 242 4,100  Level Cleveland Center
06:22PM 43.1181 -77.0122 270° West 207 238 4,100  Level Cleveland Center
06:23PM 43.1175 -77.0792 269° West 209 241 4,100  Level Cleveland Center
06:23PM 43.1167 -77.0914 265° West 208 239 4,100  Level Cleveland Center
06:24PM 43.1006 -77.1558 251° West 211 243 4,100  Level Cleveland Center
06:24PM 43.0986 -77.1678 257° West 209 241 4,100  Level Cleveland Center
06:25PM 43.0861 -77.2303 255° West 210 242 4,100  Level Cleveland Center
06:25PM 43.0828 -77.2439 251° West 209 241 4,100 -240 Level Cleveland Center
06:26PM 43.0692 -77.3069 254° West 212 244 3,900 -300 Descending Cleveland Center
06:26PM 43.0656 -77.3219 252° West 210 242 3,800 -600 Descending Cleveland Center
06:27PM 43.0508 -77.3919 254° West 218 251 3,300 -600 Descending Cleveland Center
06:27PM 43.0475 -77.4000 240° Southwest 214 246 3,200 -600 Descending Cleveland Center
06:28PM 43.0333 -77.4711 255° West 217 250 2,700 -720 Descending Cleveland Center
06:28PM 43.0297 -77.4950 258° West 214 246 2,500 -240 Descending Cleveland Center
06:29PM 43.0331 -77.5492 275° West 203 234 2,500  Level Cleveland Center
06:29PM 43.0347 -77.5728 276° West 211 243 2,500 -120 Level Cleveland Center
06:30PM 43.0481 -77.6225 290° West 191 220 2,400 -300 Descending Cleveland Center
06:30PM 43.0536 -77.6403 293° West 200 230 2,200 -540 Descending Cleveland Center
06:31PM 43.0744 -77.6758 309° West 154 177 1,900 -600 Descending Cleveland Center
06:31PM 43.0847 -77.6825 335° Northwest 180 207 1,600 -840 Descending Cleveland Center
06:32PM 43.1064 -77.6903 345° North 103 119 1,100 -300 Descending Cleveland Center
06:32PM 43.1125 -77.6811 48° Northeast 138 159 1,300 -300 Climbing Cleveland Center
06:33PM 43.1244 -77.6556 57° Northeast 127 146 700 -600 Descending Cleveland Center